Time;durP1;ratioP1;P1;durP2;ratioP2;P2;SDS_P1;SDS_P2;PMS_P1;PMS_P2;Temp;Humidity;BMP_temperature;BMP_pressure;BME280_temperature;BME280_humidity;BME280_pressure;Samples;Min_cycle;Max_cycle;Signal;HPM_P1;HPM_P2
2022/04/27 03:02:09;;;;;;;0.77;0.77;;;20.30;47.30;;;;;;5112467;23;45315;-69
2022/04/27 03:04:35;;;;;;;0.68;0.68;;;20.30;47.30;;;;;;4880092;28;45070;-68
2022/04/27 03:07:01;;;;;;;0.80;0.80;;;20.30;47.30;;;;;;4899539;28;45331;-68
2022/04/27 03:09:26;;;;;;;1.10;0.90;;;20.30;47.40;;;;;;4896309;28;44707;-67
2022/04/27 03:11:52;;;;;;;0.70;0.70;;;20.30;47.40;;;;;;4888252;28;45307;-68
2022/04/27 03:14:19;;;;;;;1.77;0.90;;;20.30;47.30;;;;;;4883914;28;45253;-68
2022/04/27 03:16:45;;;;;;;2.20;1.02;;;20.30;47.40;;;;;;4879250;28;45181;-68
2022/04/27 03:19:11;;;;;;;0.85;0.82;;;20.30;47.40;;;;;;4899580;28;45100;-68
2022/04/27 03:21:37;;;;;;;0.80;0.80;;;20.20;47.30;;;;;;4880440;28;45779;-68
2022/04/27 03:24:03;;;;;;;1.05;0.82;;;20.20;47.30;;;;;;4865018;28;45049;-68
2022/04/27 03:26:29;;;;;;;1.00;0.90;;;20.30;47.40;;;;;;4859360;28;47956;-68
2022/04/27 03:28:54;;;;;;;0.77;0.77;;;20.20;47.30;;;;;;4849045;28;45344;-69
2022/04/27 03:31:20;;;;;;;0.90;0.70;;;20.20;47.40;;;;;;4879274;28;45853;-68
2022/04/27 03:33:46;;;;;;;0.80;0.80;;;20.20;47.40;;;;;;4880425;28;44807;-68
2022/04/27 03:36:11;;;;;;;0.90;0.90;;;20.20;47.40;;;;;;4894671;28;45414;-68
2022/04/27 03:38:38;;;;;;;1.20;0.85;;;20.20;47.40;;;;;;4878500;28;45501;-67
2022/04/27 03:41:04;;;;;;;0.80;0.80;;;20.20;47.40;;;;;;4881715;28;45292;-68
2022/04/27 03:43:30;;;;;;;1.08;0.98;;;20.20;47.40;;;;;;4885078;28;45248;-68
2022/04/27 03:45:55;;;;;;;0.80;0.80;;;20.20;47.40;;;;;;4895218;28;46527;-68
2022/04/27 03:48:21;;;;;;;0.75;0.75;;;20.20;47.40;;;;;;4894592;28;45546;-68
2022/04/27 03:50:46;;;;;;;0.70;0.70;;;20.20;47.50;;;;;;4897562;28;45517;-67
2022/04/27 03:53:12;;;;;;;0.75;0.75;;;20.20;47.50;;;;;;4878956;28;45550;-68
2022/04/27 03:55:38;;;;;;;0.80;0.80;;;20.10;47.40;;;;;;4878203;28;45166;-68
2022/04/27 03:58:03;;;;;;;0.85;0.70;;;20.10;47.40;;;;;;4881148;28;45376;-68
2022/04/27 04:00:29;;;;;;;0.80;0.80;;;20.10;47.40;;;;;;4860886;28;44946;-68
2022/04/27 04:02:55;;;;;;;0.70;0.70;;;20.10;47.40;;;;;;4890928;28;44748;-68
2022/04/27 04:05:20;;;;;;;1.10;1.00;;;20.10;47.40;;;;;;4898575;28;45495;-68
2022/04/27 04:07:49;;;;;;;0.80;0.80;;;20.10;47.40;;;;;;4911660;28;45366;-68
2022/04/27 04:10:14;;;;;;;1.30;1.13;;;20.10;47.40;;;;;;4881257;28;45682;-68
2022/04/27 04:12:40;;;;;;;0.80;0.80;;;20.10;47.50;;;;;;4892663;28;45239;-68
2022/04/27 04:15:06;;;;;;;0.90;0.90;;;20.10;47.50;;;;;;4863772;28;47124;-68
2022/04/27 04:17:35;;;;;;;1.00;0.90;;;20.10;47.50;;;;;;4884076;28;44802;-69
2022/04/27 04:20:01;;;;;;;0.73;0.73;;;20.00;47.50;;;;;;4896151;28;45050;-68
2022/04/27 04:22:26;;;;;;;1.10;1.00;;;20.00;47.50;;;;;;4912768;28;45742;-68
2022/04/27 04:30:27;;;;;;;0.75;0.75;;;20.00;47.50;;;;;;4875734;28;45336;-68
2022/04/27 04:32:53;;;;;;;1.15;0.95;;;20.00;47.50;;;;;;4915833;28;45472;-68
2022/04/27 04:35:19;;;;;;;0.95;0.90;;;20.00;47.50;;;;;;4877884;28;46945;-68
2022/04/27 04:37:44;;;;;;;0.80;0.80;;;20.00;47.50;;;;;;4912710;28;44942;-68
2022/04/27 04:40:10;;;;;;;0.70;0.70;;;20.00;47.50;;;;;;4863353;28;45892;-68
2022/04/27 04:42:36;;;;;;;0.80;0.70;;;20.00;47.50;;;;;;4872834;28;45037;-68
2022/04/27 04:45:02;;;;;;;0.80;0.80;;;20.00;47.50;;;;;;4896708;28;46544;-68
2022/04/27 04:47:27;;;;;;;0.80;0.80;;;20.00;47.50;;;;;;4914925;28;45145;-68
2022/04/27 04:49:53;;;;;;;1.00;0.90;;;20.00;48.10;;;;;;4912530;28;45700;-68
2022/04/27 04:52:18;;;;;;;0.90;0.90;;;19.90;47.50;;;;;;4896067;28;45475;-68
2022/04/27 04:54:44;;;;;;;0.70;0.70;;;20.00;47.60;;;;;;4912487;28;45631;-68
2022/04/27 04:57:10;;;;;;;0.98;0.90;;;19.90;47.50;;;;;;4894285;28;45124;-68
2022/04/27 04:59:35;;;;;;;0.70;0.70;;;19.90;47.60;;;;;;4894809;28;45363;-68
2022/04/27 05:02:01;;;;;;;0.77;0.77;;;19.90;47.50;;;;;;4895958;28;45795;-67
2022/04/27 05:04:27;;;;;;;0.80;0.80;;;19.90;47.50;;;;;;4882407;28;45469;-68
2022/04/27 05:06:53;;;;;;;0.80;0.80;;;19.90;47.50;;;;;;4877538;28;44766;-68
2022/04/27 05:09:18;;;;;;;0.80;0.80;;;19.90;47.50;;;;;;4910923;28;45549;-68
2022/04/27 05:11:44;;;;;;;0.90;0.90;;;19.90;47.50;;;;;;4891302;28;45571;-68
2022/04/27 05:14:10;;;;;;;0.70;0.70;;;19.90;47.50;;;;;;4913125;28;45535;-68
2022/04/27 05:16:36;;;;;;;0.77;0.75;;;19.90;47.60;;;;;;4897343;28;45053;-68
2022/04/27 05:19:02;;;;;;;0.80;0.80;;;19.90;47.60;;;;;;4913492;28;45502;-68
2022/04/27 05:21:28;;;;;;;0.80;0.80;;;19.90;47.60;;;;;;4863344;28;45405;-68
2022/04/27 05:23:54;;;;;;;0.75;0.75;;;19.90;47.60;;;;;;4874548;28;45119;-68
2022/04/27 05:26:19;;;;;;;0.77;0.77;;;19.90;47.60;;;;;;4888781;28;45472;-68
2022/04/27 05:34:13;;;;;;;0.80;0.80;;;19.90;47.60;;;;;;4893441;28;45594;-68
2022/04/27 05:36:39;;;;;;;0.70;0.70;;;19.90;47.50;;;;;;4862147;28;45288;-68
2022/04/27 05:39:05;;;;;;;1.20;0.95;;;19.90;47.50;;;;;;4891432;28;45134;-68
2022/04/27 05:41:30;;;;;;;0.90;0.80;;;19.90;47.50;;;;;;4877202;28;45216;-68
2022/04/27 05:43:56;;;;;;;0.60;0.60;;;19.90;47.50;;;;;;4893640;28;46669;-68
2022/04/27 05:46:21;;;;;;;0.95;0.85;;;19.80;47.40;;;;;;4876607;28;45411;-68
2022/04/27 05:48:47;;;;;;;1.05;0.90;;;19.80;47.50;;;;;;4880453;28;45456;-68
2022/04/27 05:51:13;;;;;;;0.60;0.60;;;19.90;47.50;;;;;;4894457;28;44744;-67
2022/04/27 05:53:41;;;;;;;0.77;0.77;;;19.80;47.40;;;;;;4889117;28;45457;-68
2022/04/27 05:56:07;;;;;;;0.80;0.80;;;19.90;47.50;;;;;;4914545;28;45223;-68
2022/04/27 05:58:33;;;;;;;0.90;0.90;;;19.90;47.50;;;;;;4893985;28;45220;-68
2022/04/27 06:00:59;;;;;;;1.00;0.90;;;19.80;47.50;;;;;;4877414;28;45612;-68
2022/04/27 06:03:24;;;;;;;0.70;0.70;;;19.80;47.50;;;;;;4879864;28;45580;-67
2022/04/27 06:05:50;;;;;;;0.80;0.80;;;19.80;47.50;;;;;;4892234;28;45277;-68
2022/04/27 06:08:15;;;;;;;1.20;1.10;;;19.80;47.50;;;;;;4878943;28;45045;-72
2022/04/27 06:10:41;;;;;;;1.05;0.98;;;19.90;47.50;;;;;;4879649;28;45599;-69
2022/04/27 06:13:06;;;;;;;0.85;0.85;;;19.80;47.50;;;;;;4892079;28;46611;-69
2022/04/27 06:15:32;;;;;;;0.80;0.80;;;19.80;47.50;;;;;;4860687;28;45681;-67
2022/04/27 06:17:57;;;;;;;0.80;0.70;;;19.90;47.40;;;;;;4911579;28;45149;-67
2022/04/27 06:20:23;;;;;;;0.73;0.73;;;19.90;47.40;;;;;;4895282;28;44885;-67
2022/04/27 06:22:49;;;;;;;0.90;0.90;;;20.00;47.40;;;;;;4910113;28;45543;-68
2022/04/27 06:25:14;;;;;;;1.02;0.73;;;20.00;47.40;;;;;;4890894;28;45528;-69
2022/04/27 06:27:40;;;;;;;1.02;0.93;;;20.00;47.40;;;;;;4896069;28;45514;-69
2022/04/27 06:30:06;;;;;;;1.10;1.00;;;20.00;47.40;;;;;;4871368;29;45280;-69
2022/04/27 06:32:32;;;;;;;0.73;0.70;;;20.00;47.40;;;;;;4878915;28;46824;-68
2022/04/27 06:34:58;;;;;;;0.73;0.73;;;20.00;47.40;;;;;;4873922;28;44944;-68
2022/04/27 06:37:24;;;;;;;0.88;0.88;;;20.00;47.40;;;;;;4896996;28;45341;-69
2022/04/27 06:39:50;;;;;;;0.77;0.77;;;20.00;47.50;;;;;;4910805;28;45453;-68
2022/04/27 06:42:21;;;;;;;3.42;0.80;;;20.00;47.60;;;;;;4868609;28;46526;-67
2022/04/27 06:44:48;;;;;;;0.73;0.73;;;19.90;47.60;;;;;;4888211;28;45425;-67
2022/04/27 06:47:13;;;;;;;0.80;0.80;;;20.00;47.60;;;;;;4877011;28;45482;-69
2022/04/27 06:49:39;;;;;;;0.70;0.70;;;20.00;47.60;;;;;;4896635;28;44949;-67
2022/04/27 06:52:05;;;;;;;0.65;0.65;;;20.00;47.50;;;;;;4896117;28;45553;-68
2022/04/27 06:54:31;;;;;;;0.63;0.60;;;20.00;47.60;;;;;;4860931;28;45453;-67
2022/04/27 06:56:57;;;;;;;2.05;0.80;;;20.10;47.60;;;;;;4913051;28;45699;-66
2022/04/27 06:59:23;;;;;;;0.93;0.70;;;20.10;47.60;;;;;;4908526;28;45209;-68
2022/04/27 07:01:48;;;;;;;0.68;0.63;;;20.10;47.60;;;;;;4875919;28;45788;-70
2022/04/27 07:04:14;;;;;;;0.57;0.57;;;20.10;47.60;;;;;;4880583;28;45749;-69
2022/04/27 07:06:40;;;;;;;0.60;0.60;;;20.10;47.60;;;;;;4897936;28;45226;-66
2022/04/27 07:09:07;;;;;;;0.55;0.55;;;20.10;47.60;;;;;;4881561;28;45634;-68
2022/04/27 07:11:33;;;;;;;0.70;0.68;;;20.10;47.50;;;;;;4881198;28;45490;-68
2022/04/27 07:13:59;;;;;;;0.60;0.57;;;20.20;47.50;;;;;;4900070;28;45178;-67
2022/04/27 07:16:24;;;;;;;0.57;0.57;;;20.20;47.60;;;;;;4911719;28;45447;-69
2022/04/27 07:18:50;;;;;;;0.80;0.75;;;20.20;47.50;;;;;;4896205;28;45444;-67
2022/04/27 07:21:16;;;;;;;0.60;0.60;;;20.20;47.50;;;;;;4886686;28;45694;-67
2022/04/27 07:23:42;;;;;;;0.65;0.65;;;20.20;47.50;;;;;;4883677;28;45136;-65
2022/04/27 07:26:08;;;;;;;0.75;0.73;;;20.20;47.50;;;;;;4895515;28;45250;-66
2022/04/27 07:28:34;;;;;;;0.80;0.80;;;20.20;47.50;;;;;;4897879;28;45475;-67
2022/04/27 07:31:00;;;;;;;0.85;0.75;;;20.20;47.50;;;;;;4904964;28;45443;-66
2022/04/27 07:33:26;;;;;;;0.77;0.77;;;20.30;47.40;;;;;;4911855;28;45516;-67
2022/04/27 07:35:51;;;;;;;1.40;0.60;;;20.30;47.50;;;;;;4910819;28;45167;-66
2022/04/27 07:38:17;;;;;;;2.05;0.70;;;20.30;47.40;;;;;;4894761;28;45473;-66
2022/04/27 07:40:42;;;;;;;0.82;0.82;;;20.30;47.40;;;;;;4878939;28;45636;-68
2022/04/27 07:43:08;;;;;;;0.80;0.80;;;20.40;47.40;;;;;;4879600;28;46151;-66
2022/04/27 07:45:33;;;;;;;0.70;0.70;;;20.40;47.40;;;;;;4915014;28;44710;-67
2022/04/27 07:47:59;;;;;;;0.70;0.70;;;20.40;47.30;;;;;;4918998;28;44974;-67
2022/04/27 07:50:24;;;;;;;0.77;0.77;;;20.40;47.30;;;;;;4913809;28;45394;-65
2022/04/27 07:52:51;;;;;;;0.80;0.80;;;20.50;47.40;;;;;;4896264;28;46268;-65
2022/04/27 07:55:16;;;;;;;0.63;0.60;;;20.50;47.30;;;;;;4902555;28;45405;-65
2022/04/27 07:57:42;;;;;;;1.10;0.80;;;20.50;47.20;;;;;;4895442;28;45704;-66
2022/04/27 08:00:09;;;;;;;0.80;0.80;;;20.50;47.20;;;;;;4894917;28;45134;-67
2022/04/27 08:02:36;;;;;;;1.00;0.90;;;20.50;47.20;;;;;;4912519;28;45625;-67
2022/04/27 08:05:02;;;;;;;3.13;0.80;;;20.60;47.80;;;;;;4912528;28;45221;-67
2022/04/27 08:07:35;;;;;;;0.88;0.73;;;20.60;47.20;;;;;;4896409;28;45267;-67
2022/04/27 08:10:12;;;;;;;2.47;0.88;;;20.60;47.20;;;;;;4896533;28;45394;-69
2022/04/27 08:12:39;;;;;;;0.65;0.65;;;20.60;47.20;;;;;;4894887;28;45703;-68
2022/04/27 08:15:05;;;;;;;0.98;0.82;;;20.60;47.10;;;;;;4881026;28;45161;-69
2022/04/27 08:17:31;;;;;;;1.15;1.02;;;20.70;47.20;;;;;;4901251;28;45174;-68
2022/04/27 08:21:13;;;;;;;0.80;0.80;;;20.70;47.10;;;;;;4894942;28;45322;-68
2022/04/27 08:22:42;;;;;;;1.38;0.70;;;20.70;47.10;;;;;;4914252;28;44615;-69
2022/04/27 08:25:08;;;;;;;0.80;0.80;;;20.70;47.10;;;;;;4914202;28;45108;-66
2022/04/27 08:27:33;;;;;;;0.80;0.80;;;20.80;47.00;;;;;;4863369;28;45240;-66
2022/04/27 08:29:59;;;;;;;0.70;0.70;;;20.80;47.10;;;;;;4913636;28;45610;-66
2022/04/27 08:32:24;;;;;;;0.88;0.77;;;20.80;47.10;;;;;;4913940;28;45214;-67
2022/04/27 08:34:50;;;;;;;0.63;0.63;;;20.80;47.00;;;;;;4893557;28;45521;-69
2022/04/27 08:37:16;;;;;;;1.73;0.80;;;20.80;47.00;;;;;;4913095;28;45740;-67
2022/04/27 08:39:41;;;;;;;0.90;0.85;;;20.80;47.00;;;;;;4913139;28;45467;-67
2022/04/27 08:42:09;;;;;;;0.70;0.70;;;20.80;47.00;;;;;;4880713;28;45285;-67
2022/04/27 08:44:35;;;;;;;0.70;0.70;;;20.90;47.10;;;;;;4864961;28;44758;-67
2022/04/27 08:47:01;;;;;;;2.38;0.80;;;20.90;47.00;;;;;;4899111;28;45459;-65
2022/04/27 08:49:32;;;;;;;0.90;0.70;;;20.90;47.10;;;;;;4880631;28;45403;-67
2022/04/27 08:52:00;;;;;;;0.68;0.68;;;20.90;47.10;;;;;;4881596;28;44628;-67
2022/04/27 08:54:26;;;;;;;0.60;0.57;;;20.90;47.00;;;;;;4913534;28;45296;-67
2022/04/27 08:56:52;;;;;;;0.90;0.82;;;20.90;47.00;;;;;;4862498;28;44979;-67
2022/04/27 08:59:18;;;;;;;0.50;0.50;;;20.90;47.00;;;;;;4913539;28;45756;-68
2022/04/27 09:01:44;;;;;;;1.40;0.73;;;21.00;47.00;;;;;;4854141;28;45377;-67
2022/04/27 09:04:16;;;;;;;0.60;0.55;;;21.00;47.60;;;;;;4914568;28;45050;-67
2022/04/27 09:06:42;;;;;;;0.70;0.70;;;21.00;47.00;;;;;;4862154;28;45520;-68
2022/04/27 09:09:13;;;;;;;0.80;0.80;;;21.00;47.00;;;;;;4893434;28;46689;-67
2022/04/27 09:11:39;;;;;;;0.60;0.60;;;21.00;47.00;;;;;;4895919;28;45370;-67
2022/04/27 09:14:06;;;;;;;0.70;0.70;;;21.00;47.00;;;;;;4864984;28;45548;-68
2022/04/27 09:22:08;;;;;;;0.68;0.68;;;21.00;47.00;;;;;;4861713;28;45427;-66
2022/04/27 09:24:47;;;;;;;0.73;0.60;;;21.00;47.00;;;;;;4895400;28;45082;-66
2022/04/27 09:27:16;;;;;;;0.70;0.70;;;21.10;47.00;;;;;;4909540;28;44873;-69
2022/04/27 09:29:42;;;;;;;0.70;0.70;;;21.10;47.00;;;;;;4894580;28;45428;-68
2022/04/27 09:32:08;;;;;;;0.73;0.70;;;21.10;47.00;;;;;;4894405;28;45005;-67
2022/04/27 09:34:47;;;;;;;0.85;0.52;;;21.10;46.90;;;;;;4897588;28;45538;-67
2022/04/27 09:37:13;;;;;;;0.73;0.70;;;21.10;46.90;;;;;;4908590;28;45698;-67
2022/04/27 09:39:39;;;;;;;0.77;0.77;;;21.10;46.90;;;;;;4893385;28;45404;-67
2022/04/27 09:42:06;;;;;;;0.98;0.80;;;21.10;46.80;;;;;;4912752;28;44829;-67
2022/04/27 09:44:33;;;;;;;0.63;0.50;;;21.20;46.90;;;;;;4891442;28;45318;-66
2022/04/27 09:46:59;;;;;;;0.88;0.77;;;21.20;46.90;;;;;;4895832;28;45187;-67
2022/04/27 09:49:24;;;;;;;0.60;0.60;;;21.20;46.90;;;;;;4893340;28;46360;-67
2022/04/27 09:51:51;;;;;;;0.70;0.60;;;21.20;46.90;;;;;;4884473;28;45514;-67
2022/04/27 09:54:22;;;;;;;0.93;0.82;;;21.20;46.90;;;;;;4882455;28;45724;-67
2022/04/27 09:56:50;;;;;;;0.82;0.82;;;21.20;46.90;;;;;;4889438;28;45231;-67
2022/04/27 09:59:16;;;;;;;0.50;0.50;;;21.20;46.80;;;;;;4895558;28;45270;-67
2022/04/27 10:01:42;;;;;;;1.80;1.00;;;21.30;46.90;;;;;;4887319;28;45340;-67
2022/04/27 10:04:08;;;;;;;0.68;0.68;;;21.30;46.90;;;;;;4866396;29;45089;-67
2022/04/27 10:06:34;;;;;;;0.70;0.70;;;21.30;46.90;;;;;;4896794;28;45528;-67
2022/04/27 10:09:01;;;;;;;0.70;0.70;;;21.30;46.80;;;;;;4863714;28;45613;-67
2022/04/27 10:11:31;;;;;;;0.60;0.60;;;21.30;46.90;;;;;;4892850;28;45262;-67
2022/04/27 10:13:56;;;;;;;0.80;0.70;;;21.30;46.90;;;;;;4895908;28;44944;-68
2022/04/27 10:16:25;;;;;;;0.70;0.70;;;21.30;46.80;;;;;;4898507;28;45109;-68
2022/04/27 10:18:51;;;;;;;0.90;0.90;;;21.30;46.80;;;;;;4894564;28;46399;-67
2022/04/27 10:21:39;;;;;;;0.68;0.68;;;21.40;46.90;;;;;;4871810;28;45318;-66
2022/04/27 10:24:11;;;;;;;1.02;0.75;;;21.40;46.90;;;;;;4900671;28;45072;-67
2022/04/27 10:26:37;;;;;;;1.23;0.73;;;21.40;46.90;;;;;;4870878;28;45402;-67
2022/04/27 10:29:05;;;;;;;0.52;0.52;;;21.40;46.90;;;;;;4897345;28;47655;-67
2022/04/27 10:31:43;;;;;;;0.80;0.80;;;21.40;46.80;;;;;;4878321;28;45641;-67
2022/04/27 10:34:21;;;;;;;0.77;0.60;;;21.40;46.80;;;;;;4917769;28;44765;-67
2022/04/27 10:36:48;;;;;;;0.63;0.63;;;21.40;46.80;;;;;;4903342;28;45691;-68
2022/04/27 10:39:17;;;;;;;0.98;0.88;;;21.50;47.50;;;;;;4873429;28;46368;-67
2022/04/27 10:41:48;;;;;;;1.40;0.80;;;21.50;46.90;;;;;;4893597;28;44768;-67
2022/04/27 10:44:14;;;;;;;0.50;0.50;;;21.50;46.90;;;;;;4896570;28;45178;-68
2022/04/27 10:46:45;;;;;;;0.60;0.60;;;21.40;46.90;;;;;;4899382;28;46180;-68
2022/04/27 10:49:24;;;;;;;0.70;0.70;;;21.40;46.90;;;;;;4902217;28;46131;-68
2022/04/27 10:52:01;;;;;;;0.70;0.70;;;21.50;47.00;;;;;;4899042;28;45102;-68
2022/04/27 10:54:33;;;;;;;0.70;0.70;;;21.40;47.00;;;;;;4898903;28;45528;-68
2022/04/27 10:57:18;;;;;;;0.80;0.68;;;21.40;47.00;;;;;;4872689;28;45411;-67
2022/04/27 10:59:47;;;;;;;0.65;0.63;;;21.40;47.20;;;;;;4880769;28;47084;-68
2022/04/27 11:02:35;;;;;;;0.60;0.60;;;21.50;47.00;;;;;;4897356;28;45177;-67
2022/04/27 11:05:13;;;;;;;0.77;0.77;;;21.50;46.90;;;;;;4901213;28;45358;-67
2022/04/27 11:07:40;;;;;;;0.90;0.70;;;21.50;47.00;;;;;;4916417;28;44756;-67
2022/04/27 11:10:05;;;;;;;0.52;0.52;;;21.50;47.00;;;;;;4901322;28;47248;-67
2022/04/27 11:12:36;;;;;;;0.73;0.70;;;21.50;47.00;;;;;;4915478;28;45343;-67
2022/04/27 11:15:02;;;;;;;0.70;0.70;;;21.50;47.60;;;;;;4900809;28;45459;-67
2022/04/27 11:17:29;;;;;;;1.60;0.65;;;21.40;47.00;;;;;;4868393;28;45407;-68
2022/04/27 11:19:54;;;;;;;0.77;0.77;;;21.40;47.00;;;;;;4890768;28;45270;-67
2022/04/27 11:22:20;;;;;;;0.60;0.60;;;21.40;47.00;;;;;;4885524;28;44985;-68
2022/04/27 11:24:49;;;;;;;0.77;0.77;;;21.40;47.00;;;;;;4878875;28;45087;-68
2022/04/27 11:27:26;;;;;;;1.75;0.60;;;21.40;47.00;;;;;;4880434;28;45247;-67
2022/04/27 11:29:52;;;;;;;0.85;0.77;;;21.40;47.10;;;;;;4910958;28;45438;-68
2022/04/27 11:32:17;;;;;;;0.70;0.70;;;21.40;47.00;;;;;;4897447;28;45236;-69
2022/04/27 11:34:47;;;;;;;1.00;0.90;;;21.40;47.00;;;;;;4896028;28;44692;-69
2022/04/27 11:37:14;;;;;;;0.60;0.60;;;21.40;47.00;;;;;;4863474;28;44904;-68
2022/04/27 11:39:40;;;;;;;0.90;0.80;;;21.50;47.00;;;;;;4878058;28;45312;-69
2022/04/27 11:42:05;;;;;;;0.80;0.80;;;21.50;46.90;;;;;;4895936;28;45335;-68
2022/04/27 11:44:31;;;;;;;0.73;0.70;;;21.60;46.80;;;;;;4882539;28;45156;-69
2022/04/27 11:46:57;;;;;;;0.82;0.70;;;21.70;46.70;;;;;;4914406;28;45163;-69
2022/04/27 11:49:23;;;;;;;0.65;0.65;;;21.80;46.60;;;;;;4893126;28;47182;-69
2022/04/27 11:51:49;;;;;;;0.65;0.65;;;21.90;46.40;;;;;;4877841;28;45231;-69
2022/04/27 11:54:25;;;;;;;0.80;0.70;;;22.00;46.30;;;;;;4912854;28;44970;-69
2022/04/27 11:57:00;;;;;;;0.70;0.70;;;22.20;46.20;;;;;;4875266;28;45419;-69
2022/04/27 11:59:39;;;;;;;1.52;0.70;;;22.20;46.10;;;;;;4879333;28;46494;-70
2022/04/27 12:02:04;;;;;;;0.50;0.50;;;22.30;46.00;;;;;;4912110;28;44915;-70
2022/04/27 12:04:30;;;;;;;1.23;0.70;;;22.40;45.90;;;;;;4876923;28;45643;-71
2022/04/27 12:06:56;;;;;;;0.60;0.60;;;22.50;45.80;;;;;;4918145;28;45511;-69
2022/04/27 12:09:21;;;;;;;0.80;0.80;;;22.60;45.70;;;;;;4898110;28;46176;-70
2022/04/27 12:11:47;;;;;;;0.52;0.52;;;22.70;45.70;;;;;;4914465;28;45112;-69
2022/04/27 12:14:13;;;;;;;1.08;0.60;;;22.80;45.60;;;;;;4894085;28;45147;-70
2022/04/27 12:16:44;;;;;;;0.50;0.50;;;22.80;45.50;;;;;;4899302;28;45004;-70
2022/04/27 12:19:10;;;;;;;0.80;0.55;;;22.90;45.40;;;;;;4897476;28;45091;-69
2022/04/27 12:21:37;;;;;;;0.57;0.57;;;23.00;45.40;;;;;;4883724;28;46560;-69
2022/04/27 12:24:16;;;;;;;0.50;0.50;;;23.10;45.40;;;;;;4897036;28;45219;-69
2022/04/27 12:26:41;;;;;;;0.77;0.60;;;23.10;45.20;;;;;;4895682;28;45390;-69
2022/04/27 12:29:07;;;;;;;0.47;0.47;;;23.20;45.30;;;;;;4881832;28;46054;-69
2022/04/27 12:31:34;;;;;;;1.60;0.60;;;23.30;45.20;;;;;;4891932;28;45408;-71
2022/04/27 12:34:02;;;;;;;0.65;0.63;;;23.30;45.20;;;;;;4896422;28;45194;-70
2022/04/27 12:39:20;;;;;;;0.45;0.43;;;23.50;45.00;;;;;;4902494;28;46633;-69
2022/04/27 12:41:47;;;;;;;0.55;0.55;;;23.50;45.00;;;;;;4879906;28;45147;-69
2022/04/27 12:44:17;;;;;;;0.50;0.50;;;23.50;45.00;;;;;;4891373;28;45231;-70
2022/04/27 12:47:04;;;;;;;0.63;0.60;;;23.60;44.90;;;;;;4880147;28;45165;-69
2022/04/27 12:49:35;;;;;;;0.50;0.50;;;23.70;44.80;;;;;;4917119;28;45294;-69
2022/04/27 12:52:23;;;;;;;0.60;0.43;;;23.70;44.90;;;;;;4895328;28;44898;-68
2022/04/27 12:54:52;;;;;;;0.40;0.40;;;23.80;44.70;;;;;;4912418;28;44791;-68
2022/04/27 12:57:18;;;;;;;0.50;0.40;;;23.80;44.80;;;;;;4889710;28;44842;-68
2022/04/27 12:59:56;;;;;;;1.52;0.60;;;23.90;44.80;;;;;;4876348;28;45125;-68
2022/04/27 13:02:22;;;;;;;0.52;0.52;;;24.00;44.70;;;;;;4844882;29;45088;-70
2022/04/27 13:04:51;;;;;;;0.47;0.45;;;24.00;44.70;;;;;;4867238;28;45465;-69
2022/04/27 13:07:18;;;;;;;0.50;0.50;;;24.00;44.70;;;;;;4843839;29;45276;-70
2022/04/27 13:12:31;;;;;;;0.70;0.60;;;24.10;44.60;;;;;;4864759;29;45218;-70
2022/04/27 13:14:57;;;;;;;0.55;0.55;;;24.10;44.60;;;;;;4874141;29;45119;-69
2022/04/27 13:17:23;;;;;;;0.50;0.50;;;24.20;44.70;;;;;;4857106;29;45183;-69
2022/04/27 13:19:49;;;;;;;0.45;0.45;;;24.20;44.60;;;;;;4860783;29;47806;-68
2022/04/27 13:22:14;;;;;;;0.50;0.47;;;24.20;44.50;;;;;;4861937;29;45296;-69
2022/04/27 13:24:40;;;;;;;0.60;0.40;;;24.30;44.60;;;;;;4871443;29;45149;-69
2022/04/27 13:27:06;;;;;;;0.65;0.50;;;24.30;44.50;;;;;;4874654;29;45325;-72
2022/04/27 13:29:31;;;;;;;0.40;0.40;;;24.40;44.50;;;;;;4860144;29;47530;-69
2022/04/27 13:31:57;;;;;;;0.40;0.40;;;24.40;44.50;;;;;;4858088;28;45257;-69
2022/04/27 13:34:23;;;;;;;0.57;0.40;;;24.40;44.40;;;;;;4853420;29;44692;-68
2022/04/27 13:36:49;;;;;;;0.40;0.40;;;24.40;44.40;;;;;;4878001;28;44794;-70
2022/04/27 13:39:14;;;;;;;0.60;0.60;;;24.50;44.40;;;;;;4870992;29;45558;-68
2022/04/27 13:41:40;;;;;;;0.40;0.40;;;24.50;44.40;;;;;;4890986;29;45257;-68
2022/04/27 13:44:05;;;;;;;0.50;0.50;;;24.60;44.40;;;;;;4844525;29;45346;-68
2022/04/27 13:46:31;;;;;;;0.38;0.38;;;24.60;44.40;;;;;;4874406;29;45303;-69
2022/04/27 13:48:57;;;;;;;0.50;0.50;;;24.60;44.30;;;;;;4874132;28;45514;-71
2022/04/27 13:51:22;;;;;;;0.50;0.50;;;24.60;44.30;;;;;;4875429;29;45147;-69
2022/04/27 13:53:48;;;;;;;0.77;0.63;;;24.70;44.30;;;;;;4875384;28;45363;-70
2022/04/27 13:56:14;;;;;;;0.50;0.47;;;24.70;44.30;;;;;;4875207;29;45695;-72
2022/04/27 13:58:39;;;;;;;0.30;0.30;;;24.70;44.20;;;;;;4875663;28;45562;-70
2022/04/27 14:01:05;;;;;;;0.40;0.40;;;24.70;44.20;;;;;;4881312;29;45369;-69
2022/04/27 14:03:31;;;;;;;0.55;0.55;;;24.80;44.20;;;;;;4896268;28;44720;-70
2022/04/27 14:05:56;;;;;;;0.40;0.40;;;24.80;44.20;;;;;;4907481;28;44707;-69
2022/04/27 14:08:22;;;;;;;0.43;0.43;;;24.80;44.20;;;;;;4895201;28;45521;-70
2022/04/27 14:10:48;;;;;;;0.40;0.40;;;24.80;44.10;;;;;;4894464;28;45178;-72
2022/04/27 14:13:14;;;;;;;0.35;0.35;;;24.80;44.20;;;;;;4898821;28;45242;-69
2022/04/27 14:18:29;;;;;;;0.40;0.40;;;24.90;44.10;;;;;;4885319;28;46745;-70
2022/04/27 14:20:55;;;;;;;0.30;0.30;;;24.90;44.10;;;;;;4900507;28;44660;-68
2022/04/27 14:23:22;;;;;;;0.40;0.40;;;24.90;44.10;;;;;;4896197;28;45290;-71
2022/04/27 14:25:48;;;;;;;0.40;0.40;;;25.00;44.10;;;;;;4877243;28;45355;-70
2022/04/27 14:28:13;;;;;;;0.35;0.35;;;24.90;44.10;;;;;;4896037;28;45037;-73
2022/04/27 14:30:39;;;;;;;0.40;0.40;;;25.00;44.10;;;;;;4875636;28;45552;-72
2022/04/27 14:33:06;;;;;;;0.60;0.50;;;25.00;44.10;;;;;;4869147;28;45789;-68
2022/04/27 14:35:32;;;;;;;0.60;0.60;;;25.00;44.00;;;;;;4863361;28;45653;-70
2022/04/27 14:37:58;;;;;;;0.40;0.40;;;25.10;44.10;;;;;;4894163;28;46605;-71
2022/04/27 14:40:24;;;;;;;0.35;0.35;;;25.10;44.00;;;;;;4893083;28;44687;-70
2022/04/27 14:42:49;;;;;;;0.38;0.38;;;25.10;44.00;;;;;;4881036;28;45188;-74
2022/04/27 14:45:15;;;;;;;0.40;0.40;;;25.10;44.00;;;;;;4888470;28;45331;-70
2022/04/27 14:47:41;;;;;;;1.15;0.47;;;25.10;43.90;;;;;;4878158;28;45720;-71
2022/04/27 14:50:07;;;;;;;0.60;0.30;;;25.10;44.50;;;;;;4893187;28;45681;-71
2022/04/27 14:52:33;;;;;;;0.40;0.40;;;25.10;43.90;;;;;;4911513;28;45280;-70
2022/04/27 14:55:02;;;;;;;0.40;0.40;;;25.20;44.00;;;;;;4876697;29;45129;-69
2022/04/27 14:57:27;;;;;;;0.40;0.40;;;25.20;43.90;;;;;;4902633;28;45495;-72
2022/04/27 14:59:54;;;;;;;0.40;0.40;;;25.20;43.90;;;;;;4877523;28;45446;-73
2022/04/27 15:02:23;;;;;;;0.40;0.40;;;25.20;44.00;;;;;;4871630;28;45153;-70
2022/04/27 15:04:49;;;;;;;0.82;0.43;;;25.20;43.90;;;;;;4895109;28;45199;-70
2022/04/27 15:07:14;;;;;;;0.50;0.40;;;25.30;43.90;;;;;;4891604;28;45517;-68
2022/04/27 15:09:40;;;;;;;0.38;0.38;;;25.20;43.90;;;;;;4910626;28;45214;-70
2022/04/27 15:12:06;;;;;;;0.32;0.30;;;25.30;44.00;;;;;;4882030;28;45369;-68
2022/04/27 15:14:32;;;;;;;0.40;0.40;;;25.30;44.00;;;;;;4889482;28;45611;-67
2022/04/27 15:16:59;;;;;;;0.35;0.35;;;25.30;43.90;;;;;;4874820;28;45539;-68
2022/04/27 15:19:24;;;;;;;0.40;0.40;;;25.30;43.90;;;;;;4906647;28;45523;-70
2022/04/27 15:24:34;;;;;;;0.40;0.20;;;25.30;43.90;;;;;;4916136;28;45599;-69
2022/04/27 15:27:00;;;;;;;0.30;0.30;;;25.30;43.90;;;;;;4875245;29;46530;-68
2022/04/27 15:29:36;;;;;;;0.40;0.40;;;25.40;43.90;;;;;;4890551;28;45436;-68
2022/04/27 15:32:05;;;;;;;0.40;0.40;;;25.40;43.80;;;;;;4880796;28;45268;-69
2022/04/27 15:34:31;;;;;;;1.88;0.50;;;25.40;43.90;;;;;;4891323;28;45481;-69
2022/04/27 15:36:57;;;;;;;0.40;0.40;;;25.40;43.90;;;;;;4876328;28;45454;-69
2022/04/27 15:39:22;;;;;;;0.30;0.30;;;25.40;43.90;;;;;;4887934;28;45221;-68
2022/04/27 15:41:48;;;;;;;0.65;0.60;;;25.40;44.00;;;;;;4876806;28;45564;-68
2022/04/27 15:44:13;;;;;;;0.28;0.28;;;25.40;43.90;;;;;;4896623;28;45692;-67
2022/04/27 15:46:41;;;;;;;1.05;0.50;;;25.40;43.90;;;;;;4890253;28;46439;-67
2022/04/27 15:49:11;;;;;;;0.25;0.25;;;25.40;43.90;;;;;;4890050;28;45617;-67
2022/04/27 15:51:37;;;;;;;0.50;0.50;;;25.30;43.90;;;;;;4891001;28;45241;-67
2022/04/27 15:54:03;;;;;;;0.68;0.40;;;25.30;44.00;;;;;;4890670;28;44923;-68
2022/04/27 15:56:29;;;;;;;0.40;0.32;;;25.20;44.00;;;;;;4891138;28;45912;-68
2022/04/27 15:58:54;;;;;;;0.30;0.30;;;25.20;44.10;;;;;;4892430;28;45272;-67
2022/04/27 16:01:21;;;;;;;1.65;0.50;;;25.20;44.20;;;;;;4877002;28;45508;-67
2022/04/27 16:03:47;;;;;;;0.40;0.40;;;25.10;44.10;;;;;;4872478;28;45077;-67
2022/04/27 16:06:12;;;;;;;0.30;0.30;;;25.10;44.20;;;;;;4874901;28;46350;-68
2022/04/27 16:08:38;;;;;;;0.40;0.40;;;25.00;44.20;;;;;;4888908;28;45796;-67
2022/04/27 16:11:05;;;;;;;0.60;0.60;;;25.00;44.40;;;;;;4864819;29;45408;-68
2022/04/27 16:13:31;;;;;;;2.58;0.57;;;24.90;44.40;;;;;;4863363;29;45627;-68
2022/04/27 16:15:57;;;;;;;0.30;0.30;;;24.90;44.50;;;;;;4868655;28;47060;-67